Terminal Aerodrome Forecast
Issued by NWS Mobile, AL

Home | Current Version | Previous Version | Text Only | Print | Product List | Glossary On
Versions: 1 2 3 4 5 6 7 8 9 10 11 12 13 14 15 16 17
000
FTUS44 KMOB 250110 AAA
TAFMOB
TAF AMD
KMOB 250110Z 2501/2524 15010KT P6SM -SHRA VCTS SCT040CB SCT120
      SCT250
     FM250200 13006KT P6SM SCT040 SCT120 SCT250
     FM251500 12011KT P6SM BKN025 BKN100 BKN250
     FM251800 12012G18KT P6SM VCTS BKN040CB BKN250
     FM252200 13012KT P6SM SCT060 SCT250=

USA.gov is the U.S. government's official web portal to all federal, state and local government web resources and services.